sensor_id;sensor_type;location;lat;lon;timestamp;P1;durP1;ratioP1;P2;durP2;ratioP2
4206;SDS011;2117;47.972;7.830;2023-05-29T03:01:40;7.60;;;4.73;;
4206;SDS011;2117;47.972;7.830;2023-05-29T03:04:06;9.70;;;5.67;;
4206;SDS011;2117;47.972;7.830;2023-05-29T03:06:31;12.20;;;6.27;;
4206;SDS011;2117;47.972;7.830;2023-05-29T03:08:57;11.10;;;5.40;;
4206;SDS011;2117;47.972;7.830;2023-05-29T03:11:24;9.87;;;5.50;;
4206;SDS011;2117;47.972;7.830;2023-05-29T03:13:50;10.80;;;5.97;;
4206;SDS011;2117;47.972;7.830;2023-05-29T03:16:16;10.70;;;5.57;;
4206;SDS011;2117;47.972;7.830;2023-05-29T03:18:41;10.10;;;5.93;;
4206;SDS011;2117;47.972;7.830;2023-05-29T03:21:07;15.73;;;5.23;;
4206;SDS011;2117;47.972;7.830;2023-05-29T03:23:33;11.00;;;5.30;;
4206;SDS011;2117;47.972;7.830;2023-05-29T03:25:59;11.00;;;5.27;;
4206;SDS011;2117;47.972;7.830;2023-05-29T03:28:25;11.87;;;6.67;;
4206;SDS011;2117;47.972;7.830;2023-05-29T03:30:50;10.33;;;5.40;;
4206;SDS011;2117;47.972;7.830;2023-05-29T03:33:16;11.17;;;5.80;;
4206;SDS011;2117;47.972;7.830;2023-05-29T03:35:42;11.83;;;6.20;;
4206;SDS011;2117;47.972;7.830;2023-05-29T03:38:07;9.00;;;5.40;;
4206;SDS011;2117;47.972;7.830;2023-05-29T03:40:33;9.53;;;5.30;;
4206;SDS011;2117;47.972;7.830;2023-05-29T03:42:58;10.77;;;5.10;;
4206;SDS011;2117;47.972;7.830;2023-05-29T03:45:24;10.20;;;5.30;;
4206;SDS011;2117;47.972;7.830;2023-05-29T03:47:50;11.27;;;5.83;;
4206;SDS011;2117;47.972;7.830;2023-05-29T03:50:16;9.93;;;5.10;;
4206;SDS011;2117;47.972;7.830;2023-05-29T03:52:42;7.60;;;4.80;;
4206;SDS011;2117;47.972;7.830;2023-05-29T03:55:10;17.80;;;6.17;;
4206;SDS011;2117;47.972;7.830;2023-05-29T03:57:38;9.43;;;5.17;;
4206;SDS011;2117;47.972;7.830;2023-05-29T04:00:05;7.27;;;4.90;;
4206;SDS011;2117;47.972;7.830;2023-05-29T04:02:36;10.93;;;6.20;;
4206;SDS011;2117;47.972;7.830;2023-05-29T04:05:05;8.77;;;5.20;;
4206;SDS011;2117;47.972;7.830;2023-05-29T04:07:31;10.70;;;6.60;;
4206;SDS011;2117;47.972;7.830;2023-05-29T04:09:57;9.27;;;5.67;;
4206;SDS011;2117;47.972;7.830;2023-05-29T04:12:23;10.13;;;6.00;;
4206;SDS011;2117;47.972;7.830;2023-05-29T04:14:48;11.50;;;7.00;;
4206;SDS011;2117;47.972;7.830;2023-05-29T04:17:14;8.70;;;5.90;;
4206;SDS011;2117;47.972;7.830;2023-05-29T04:19:40;14.33;;;7.37;;
4206;SDS011;2117;47.972;7.830;2023-05-29T04:22:05;10.83;;;5.83;;
4206;SDS011;2117;47.972;7.830;2023-05-29T04:24:31;10.23;;;5.20;;
4206;SDS011;2117;47.972;7.830;2023-05-29T04:26:57;14.37;;;5.80;;
4206;SDS011;2117;47.972;7.830;2023-05-29T04:29:25;11.30;;;5.67;;
4206;SDS011;2117;47.972;7.830;2023-05-29T04:31:51;13.50;;;6.53;;
4206;SDS011;2117;47.972;7.830;2023-05-29T04:34:17;9.70;;;5.73;;
4206;SDS011;2117;47.972;7.830;2023-05-29T04:36:42;10.77;;;6.27;;
4206;SDS011;2117;47.972;7.830;2023-05-29T04:39:09;11.53;;;7.20;;
4206;SDS011;2117;47.972;7.830;2023-05-29T04:41:35;9.70;;;5.80;;
4206;SDS011;2117;47.972;7.830;2023-05-29T04:44:02;14.80;;;7.00;;
4206;SDS011;2117;47.972;7.830;2023-05-29T04:46:29;9.90;;;5.20;;
4206;SDS011;2117;47.972;7.830;2023-05-29T04:48:55;10.47;;;5.80;;
4206;SDS011;2117;47.972;7.830;2023-05-29T04:51:21;8.87;;;5.43;;
4206;SDS011;2117;47.972;7.830;2023-05-29T04:53:47;9.43;;;6.00;;
4206;SDS011;2117;47.972;7.830;2023-05-29T04:56:13;13.27;;;5.80;;
4206;SDS011;2117;47.972;7.830;2023-05-29T04:58:40;12.10;;;6.37;;
4206;SDS011;2117;47.972;7.830;2023-05-29T05:01:06;12.93;;;6.57;;
4206;SDS011;2117;47.972;7.830;2023-05-29T05:03:34;13.60;;;6.33;;
4206;SDS011;2117;47.972;7.830;2023-05-29T05:06:00;10.50;;;5.80;;
4206;SDS011;2117;47.972;7.830;2023-05-29T05:08:30;10.13;;;5.37;;
4206;SDS011;2117;47.972;7.830;2023-05-29T05:10:57;9.87;;;6.60;;
4206;SDS011;2117;47.972;7.830;2023-05-29T05:13:23;13.20;;;7.27;;
4206;SDS011;2117;47.972;7.830;2023-05-29T05:15:49;14.13;;;6.20;;
4206;SDS011;2117;47.972;7.830;2023-05-29T05:18:14;16.20;;;7.40;;
4206;SDS011;2117;47.972;7.830;2023-05-29T05:20:40;14.67;;;7.67;;
4206;SDS011;2117;47.972;7.830;2023-05-29T05:23:05;13.23;;;6.87;;
4206;SDS011;2117;47.972;7.830;2023-05-29T05:25:31;11.93;;;6.33;;
4206;SDS011;2117;47.972;7.830;2023-05-29T05:27:58;14.47;;;6.70;;
4206;SDS011;2117;47.972;7.830;2023-05-29T05:30:24;11.17;;;6.50;;
4206;SDS011;2117;47.972;7.830;2023-05-29T05:32:49;13.67;;;7.13;;
4206;SDS011;2117;47.972;7.830;2023-05-29T05:35:15;16.77;;;7.90;;
4206;SDS011;2117;47.972;7.830;2023-05-29T05:37:41;11.30;;;7.53;;
4206;SDS011;2117;47.972;7.830;2023-05-29T05:40:06;19.23;;;7.93;;
4206;SDS011;2117;47.972;7.830;2023-05-29T05:42:33;15.47;;;8.57;;
4206;SDS011;2117;47.972;7.830;2023-05-29T05:44:59;9.97;;;7.20;;
4206;SDS011;2117;47.972;7.830;2023-05-29T05:47:24;15.20;;;8.23;;
4206;SDS011;2117;47.972;7.830;2023-05-29T05:49:52;13.73;;;6.90;;
4206;SDS011;2117;47.972;7.830;2023-05-29T05:52:17;13.77;;;8.77;;
4206;SDS011;2117;47.972;7.830;2023-05-29T05:54:43;11.17;;;6.43;;
4206;SDS011;2117;47.972;7.830;2023-05-29T05:57:09;19.33;;;8.03;;
4206;SDS011;2117;47.972;7.830;2023-05-29T05:59:35;20.07;;;8.13;;
4206;SDS011;2117;47.972;7.830;2023-05-29T06:02:00;14.63;;;7.00;;
4206;SDS011;2117;47.972;7.830;2023-05-29T06:04:28;11.27;;;7.73;;
4206;SDS011;2117;47.972;7.830;2023-05-29T06:06:54;11.60;;;7.50;;
4206;SDS011;2117;47.972;7.830;2023-05-29T06:09:20;17.23;;;7.60;;
4206;SDS011;2117;47.972;7.830;2023-05-29T06:11:46;10.27;;;7.17;;
4206;SDS011;2117;47.972;7.830;2023-05-29T06:14:12;13.60;;;7.40;;
4206;SDS011;2117;47.972;7.830;2023-05-29T06:16:38;15.23;;;7.30;;
4206;SDS011;2117;47.972;7.830;2023-05-29T06:19:04;18.30;;;7.10;;
4206;SDS011;2117;47.972;7.830;2023-05-29T06:21:29;14.30;;;6.90;;
4206;SDS011;2117;47.972;7.830;2023-05-29T06:23:56;18.43;;;8.20;;
4206;SDS011;2117;47.972;7.830;2023-05-29T06:26:22;13.47;;;7.93;;
4206;SDS011;2117;47.972;7.830;2023-05-29T06:28:49;12.00;;;7.43;;
4206;SDS011;2117;47.972;7.830;2023-05-29T06:31:16;12.53;;;7.83;;
4206;SDS011;2117;47.972;7.830;2023-05-29T06:33:41;16.50;;;7.50;;
4206;SDS011;2117;47.972;7.830;2023-05-29T06:36:07;12.77;;;7.77;;
4206;SDS011;2117;47.972;7.830;2023-05-29T06:38:33;12.90;;;7.90;;
4206;SDS011;2117;47.972;7.830;2023-05-29T06:40:58;14.23;;;7.97;;
4206;SDS011;2117;47.972;7.830;2023-05-29T06:43:24;18.90;;;8.53;;
4206;SDS011;2117;47.972;7.830;2023-05-29T06:45:50;10.80;;;7.47;;
4206;SDS011;2117;47.972;7.830;2023-05-29T06:48:16;15.07;;;8.13;;
4206;SDS011;2117;47.972;7.830;2023-05-29T06:50:41;11.93;;;7.80;;
4206;SDS011;2117;47.972;7.830;2023-05-29T06:53:07;19.57;;;8.30;;
4206;SDS011;2117;47.972;7.830;2023-05-29T06:55:32;13.33;;;7.67;;
4206;SDS011;2117;47.972;7.830;2023-05-29T06:57:58;16.60;;;8.30;;
4206;SDS011;2117;47.972;7.830;2023-05-29T07:00:24;13.97;;;8.17;;
4206;SDS011;2117;47.972;7.830;2023-05-29T07:02:49;15.20;;;7.33;;
4206;SDS011;2117;47.972;7.830;2023-05-29T07:05:16;14.03;;;7.73;;
4206;SDS011;2117;47.972;7.830;2023-05-29T07:07:41;12.33;;;7.10;;
4206;SDS011;2117;47.972;7.830;2023-05-29T07:10:07;10.43;;;6.10;;
4206;SDS011;2117;47.972;7.830;2023-05-29T07:12:33;12.13;;;7.20;;
4206;SDS011;2117;47.972;7.830;2023-05-29T07:14:58;9.53;;;5.73;;
4206;SDS011;2117;47.972;7.830;2023-05-29T07:17:24;8.77;;;6.37;;
4206;SDS011;2117;47.972;7.830;2023-05-29T07:19:49;11.20;;;6.50;;
4206;SDS011;2117;47.972;7.830;2023-05-29T07:22:15;13.10;;;6.20;;
4206;SDS011;2117;47.972;7.830;2023-05-29T07:24:41;11.60;;;6.10;;
4206;SDS011;2117;47.972;7.830;2023-05-29T07:27:07;13.23;;;7.40;;
4206;SDS011;2117;47.972;7.830;2023-05-29T07:29:32;9.83;;;6.33;;
4206;SDS011;2117;47.972;7.830;2023-05-29T07:31:58;13.87;;;8.27;;
4206;SDS011;2117;47.972;7.830;2023-05-29T07:34:23;11.17;;;6.67;;
4206;SDS011;2117;47.972;7.830;2023-05-29T07:36:56;13.43;;;6.20;;
4206;SDS011;2117;47.972;7.830;2023-05-29T07:39:23;9.33;;;7.27;;
4206;SDS011;2117;47.972;7.830;2023-05-29T07:41:49;10.70;;;6.80;;
4206;SDS011;2117;47.972;7.830;2023-05-29T07:44:15;13.07;;;7.40;;
4206;SDS011;2117;47.972;7.830;2023-05-29T07:46:40;11.83;;;6.00;;
4206;SDS011;2117;47.972;7.830;2023-05-29T07:49:06;12.30;;;6.70;;
4206;SDS011;2117;47.972;7.830;2023-05-29T07:51:31;15.77;;;6.53;;
4206;SDS011;2117;47.972;7.830;2023-05-29T07:53:57;11.80;;;7.03;;
4206;SDS011;2117;47.972;7.830;2023-05-29T07:56:22;10.57;;;6.40;;
4206;SDS011;2117;47.972;7.830;2023-05-29T07:58:48;9.70;;;6.60;;
4206;SDS011;2117;47.972;7.830;2023-05-29T08:01:14;11.93;;;6.70;;
4206;SDS011;2117;47.972;7.830;2023-05-29T08:03:41;12.03;;;6.87;;
4206;SDS011;2117;47.972;7.830;2023-05-29T08:06:08;11.20;;;6.70;;
4206;SDS011;2117;47.972;7.830;2023-05-29T08:08:34;9.60;;;5.40;;
4206;SDS011;2117;47.972;7.830;2023-05-29T08:10:59;8.70;;;5.53;;
4206;SDS011;2117;47.972;7.830;2023-05-29T08:13:25;12.33;;;7.03;;
4206;SDS011;2117;47.972;7.830;2023-05-29T08:15:52;14.20;;;5.50;;
4206;SDS011;2117;47.972;7.830;2023-05-29T08:18:18;8.10;;;5.83;;
4206;SDS011;2117;47.972;7.830;2023-05-29T08:20:43;11.70;;;6.50;;
4206;SDS011;2117;47.972;7.830;2023-05-29T08:23:09;12.00;;;6.03;;
4206;SDS011;2117;47.972;7.830;2023-05-29T08:25:35;10.67;;;5.93;;
4206;SDS011;2117;47.972;7.830;2023-05-29T08:28:01;9.90;;;6.57;;
4206;SDS011;2117;47.972;7.830;2023-05-29T08:30:26;13.23;;;6.20;;
4206;SDS011;2117;47.972;7.830;2023-05-29T08:32:52;11.10;;;5.57;;
4206;SDS011;2117;47.972;7.830;2023-05-29T08:35:17;11.37;;;5.93;;
4206;SDS011;2117;47.972;7.830;2023-05-29T08:37:43;11.93;;;6.57;;
4206;SDS011;2117;47.972;7.830;2023-05-29T08:40:09;13.47;;;6.43;;
4206;SDS011;2117;47.972;7.830;2023-05-29T08:42:36;10.33;;;6.77;;
4206;SDS011;2117;47.972;7.830;2023-05-29T08:45:10;9.30;;;5.90;;
4206;SDS011;2117;47.972;7.830;2023-05-29T08:47:39;13.87;;;6.90;;
4206;SDS011;2117;47.972;7.830;2023-05-29T08:50:06;11.03;;;5.87;;
4206;SDS011;2117;47.972;7.830;2023-05-29T08:52:33;10.03;;;6.57;;
4206;SDS011;2117;47.972;7.830;2023-05-29T08:55:02;13.60;;;5.87;;
4206;SDS011;2117;47.972;7.830;2023-05-29T08:57:29;10.23;;;5.70;;
4206;SDS011;2117;47.972;7.830;2023-05-29T08:59:56;11.33;;;6.03;;
4206;SDS011;2117;47.972;7.830;2023-05-29T09:02:22;8.63;;;5.33;;
4206;SDS011;2117;47.972;7.830;2023-05-29T09:04:47;13.03;;;5.80;;
4206;SDS011;2117;47.972;7.830;2023-05-29T09:07:19;9.90;;;6.60;;
4206;SDS011;2117;47.972;7.830;2023-05-29T09:09:46;10.87;;;6.00;;
4206;SDS011;2117;47.972;7.830;2023-05-29T09:12:13;9.90;;;6.07;;
4206;SDS011;2117;47.972;7.830;2023-05-29T09:14:41;10.23;;;6.23;;
4206;SDS011;2117;47.972;7.830;2023-05-29T09:17:07;13.67;;;6.40;;
4206;SDS011;2117;47.972;7.830;2023-05-29T09:19:33;9.37;;;5.97;;
4206;SDS011;2117;47.972;7.830;2023-05-29T09:22:04;9.97;;;5.73;;
4206;SDS011;2117;47.972;7.830;2023-05-29T09:24:34;9.90;;;5.60;;
4206;SDS011;2117;47.972;7.830;2023-05-29T09:27:02;11.77;;;5.40;;
4206;SDS011;2117;47.972;7.830;2023-05-29T09:29:39;7.17;;;5.60;;
4206;SDS011;2117;47.972;7.830;2023-05-29T09:32:06;13.40;;;5.70;;
4206;SDS011;2117;47.972;7.830;2023-05-29T09:34:33;9.27;;;5.47;;
4206;SDS011;2117;47.972;7.830;2023-05-29T09:37:04;9.27;;;6.03;;
4206;SDS011;2117;47.972;7.830;2023-05-29T09:39:49;9.63;;;5.83;;
4206;SDS011;2117;47.972;7.830;2023-05-29T09:42:16;7.87;;;5.40;;
4206;SDS011;2117;47.972;7.830;2023-05-29T09:44:44;6.60;;;5.67;;
4206;SDS011;2117;47.972;7.830;2023-05-29T09:47:14;8.80;;;5.60;;
4206;SDS011;2117;47.972;7.830;2023-05-29T09:49:42;7.00;;;5.53;;
4206;SDS011;2117;47.972;7.830;2023-05-29T09:52:10;9.80;;;5.77;;
4206;SDS011;2117;47.972;7.830;2023-05-29T09:54:40;7.97;;;4.93;;
4206;SDS011;2117;47.972;7.830;2023-05-29T09:57:10;13.83;;;5.67;;
4206;SDS011;2117;47.972;7.830;2023-05-29T09:59:41;14.57;;;7.83;;
4206;SDS011;2117;47.972;7.830;2023-05-29T10:02:10;8.57;;;5.53;;
4206;SDS011;2117;47.972;7.830;2023-05-29T10:04:38;8.17;;;5.90;;
4206;SDS011;2117;47.972;7.830;2023-05-29T10:07:08;12.80;;;5.60;;
4206;SDS011;2117;47.972;7.830;2023-05-29T10:09:45;6.20;;;4.37;;
4206;SDS011;2117;47.972;7.830;2023-05-29T10:12:15;10.10;;;6.10;;
4206;SDS011;2117;47.972;7.830;2023-05-29T10:14:45;7.57;;;5.30;;
4206;SDS011;2117;47.972;7.830;2023-05-29T10:17:14;9.37;;;6.00;;
4206;SDS011;2117;47.972;7.830;2023-05-29T10:19:43;10.40;;;5.63;;
4206;SDS011;2117;47.972;7.830;2023-05-29T10:22:12;8.93;;;5.47;;
4206;SDS011;2117;47.972;7.830;2023-05-29T10:24:38;9.37;;;5.40;;
4206;SDS011;2117;47.972;7.830;2023-05-29T10:27:05;10.80;;;6.13;;
4206;SDS011;2117;47.972;7.830;2023-05-29T10:29:38;9.80;;;5.67;;
4206;SDS011;2117;47.972;7.830;2023-05-29T10:37:44;6.53;;;5.20;;
4206;SDS011;2117;47.972;7.830;2023-05-29T10:40:25;10.90;;;6.23;;
4206;SDS011;2117;47.972;7.830;2023-05-29T10:42:51;9.30;;;5.17;;
4206;SDS011;2117;47.972;7.830;2023-05-29T10:46:04;11.90;;;6.10;;
4206;SDS011;2117;47.972;7.830;2023-05-29T10:50:43;10.27;;;6.07;;
4206;SDS011;2117;47.972;7.830;2023-05-29T10:53:16;11.20;;;6.00;;
4206;SDS011;2117;47.972;7.830;2023-05-29T10:55:42;10.17;;;5.30;;
4206;SDS011;2117;47.972;7.830;2023-05-29T10:58:20;8.57;;;5.70;;
4206;SDS011;2117;47.972;7.830;2023-05-29T11:00:50;9.93;;;5.67;;
4206;SDS011;2117;47.972;7.830;2023-05-29T11:03:23;8.80;;;5.77;;
4206;SDS011;2117;47.972;7.830;2023-05-29T11:06:00;6.93;;;5.20;;
4206;SDS011;2117;47.972;7.830;2023-05-29T11:11:29;7.73;;;5.40;;
4206;SDS011;2117;47.972;7.830;2023-05-29T11:14:06;8.60;;;5.67;;
4206;SDS011;2117;47.972;7.830;2023-05-29T11:18:58;8.60;;;5.73;;
4206;SDS011;2117;47.972;7.830;2023-05-29T11:24:29;11.60;;;6.43;;
4206;SDS011;2117;47.972;7.830;2023-05-29T11:26:55;10.83;;;6.40;;
4206;SDS011;2117;47.972;7.830;2023-05-29T11:29:26;9.57;;;6.10;;
4206;SDS011;2117;47.972;7.830;2023-05-29T11:34:29;6.70;;;5.33;;
4206;SDS011;2117;47.972;7.830;2023-05-29T11:37:02;11.50;;;5.90;;
4206;SDS011;2117;47.972;7.830;2023-05-29T11:39:28;10.80;;;6.90;;
4206;SDS011;2117;47.972;7.830;2023-05-29T11:41:54;11.80;;;5.80;;
4206;SDS011;2117;47.972;7.830;2023-05-29T11:44:20;13.30;;;6.57;;
4206;SDS011;2117;47.972;7.830;2023-05-29T11:46:59;8.73;;;6.10;;
4206;SDS011;2117;47.972;7.830;2023-05-29T11:49:27;12.40;;;6.37;;
4206;SDS011;2117;47.972;7.830;2023-05-29T11:52:05;21.77;;;6.27;;
4206;SDS011;2117;47.972;7.830;2023-05-29T11:54:35;11.53;;;5.97;;
4206;SDS011;2117;47.972;7.830;2023-05-29T11:57:02;8.63;;;6.13;;
4206;SDS011;2117;47.972;7.830;2023-05-29T11:59:30;10.20;;;6.10;;
4206;SDS011;2117;47.972;7.830;2023-05-29T12:01:56;7.97;;;5.93;;
4206;SDS011;2117;47.972;7.830;2023-05-29T12:04:22;8.90;;;6.10;;
4206;SDS011;2117;47.972;7.830;2023-05-29T12:06:47;9.13;;;6.00;;
4206;SDS011;2117;47.972;7.830;2023-05-29T12:09:29;16.03;;;6.47;;
4206;SDS011;2117;47.972;7.830;2023-05-29T12:12:01;7.37;;;5.97;;
4206;SDS011;2117;47.972;7.830;2023-05-29T12:14:27;11.63;;;6.07;;
4206;SDS011;2117;47.972;7.830;2023-05-29T12:16:53;7.43;;;6.63;;
4206;SDS011;2117;47.972;7.830;2023-05-29T12:19:19;15.10;;;5.90;;
4206;SDS011;2117;47.972;7.830;2023-05-29T12:21:44;9.07;;;6.47;;
4206;SDS011;2117;47.972;7.830;2023-05-29T12:24:10;9.60;;;5.90;;
4206;SDS011;2117;47.972;7.830;2023-05-29T12:26:36;9.10;;;6.60;;
4206;SDS011;2117;47.972;7.830;2023-05-29T12:29:02;10.00;;;7.10;;
4206;SDS011;2117;47.972;7.830;2023-05-29T12:31:30;10.00;;;6.07;;
4206;SDS011;2117;47.972;7.830;2023-05-29T12:34:08;8.20;;;5.37;;
4206;SDS011;2117;47.972;7.830;2023-05-29T12:36:39;13.50;;;7.03;;
4206;SDS011;2117;47.972;7.830;2023-05-29T12:39:06;9.33;;;6.47;;
4206;SDS011;2117;47.972;7.830;2023-05-29T12:41:36;10.47;;;6.60;;
4206;SDS011;2117;47.972;7.830;2023-05-29T12:44:04;8.67;;;6.80;;
4206;SDS011;2117;47.972;7.830;2023-05-29T12:46:40;7.50;;;5.78;;
4206;SDS011;2117;47.972;7.830;2023-05-29T12:49:26;8.50;;;6.28;;
4206;SDS011;2117;47.972;7.830;2023-05-29T12:51:53;11.45;;;6.40;;
4206;SDS011;2117;47.972;7.830;2023-05-29T12:54:19;9.38;;;6.53;;
4206;SDS011;2117;47.972;7.830;2023-05-29T12:56:44;13.02;;;6.65;;
4206;SDS011;2117;47.972;7.830;2023-05-29T12:59:11;9.52;;;7.07;;
4206;SDS011;2117;47.972;7.830;2023-05-29T13:01:37;8.85;;;6.93;;
4206;SDS011;2117;47.972;7.830;2023-05-29T13:04:06;9.07;;;7.38;;
4206;SDS011;2117;47.972;7.830;2023-05-29T13:06:35;10.18;;;7.05;;
4206;SDS011;2117;47.972;7.830;2023-05-29T13:09:02;7.63;;;6.05;;
4206;SDS011;2117;47.972;7.830;2023-05-29T13:11:27;10.80;;;7.57;;
4206;SDS011;2117;47.972;7.830;2023-05-29T13:13:53;7.40;;;6.40;;
4206;SDS011;2117;47.972;7.830;2023-05-29T13:16:18;7.65;;;6.50;;
4206;SDS011;2117;47.972;7.830;2023-05-29T13:18:44;8.95;;;7.18;;
4206;SDS011;2117;47.972;7.830;2023-05-29T13:21:10;8.30;;;7.13;;
4206;SDS011;2117;47.972;7.830;2023-05-29T13:23:36;8.45;;;7.03;;
4206;SDS011;2117;47.972;7.830;2023-05-29T13:26:01;9.82;;;7.25;;
4206;SDS011;2117;47.972;7.830;2023-05-29T13:28:28;7.68;;;6.88;;
4206;SDS011;2117;47.972;7.830;2023-05-29T13:30:54;10.65;;;6.93;;
4206;SDS011;2117;47.972;7.830;2023-05-29T13:33:19;9.77;;;6.68;;
4206;SDS011;2117;47.972;7.830;2023-05-29T13:35:45;9.18;;;7.10;;
4206;SDS011;2117;47.972;7.830;2023-05-29T13:38:11;8.02;;;6.10;;
4206;SDS011;2117;47.972;7.830;2023-05-29T13:40:36;8.38;;;6.72;;
4206;SDS011;2117;47.972;7.830;2023-05-29T13:43:02;7.95;;;6.45;;
4206;SDS011;2117;47.972;7.830;2023-05-29T13:45:27;8.63;;;7.07;;
4206;SDS011;2117;47.972;7.830;2023-05-29T13:47:54;8.98;;;5.88;;
4206;SDS011;2117;47.972;7.830;2023-05-29T13:50:20;8.48;;;6.15;;
4206;SDS011;2117;47.972;7.830;2023-05-29T13:52:48;12.90;;;6.88;;
4206;SDS011;2117;47.972;7.830;2023-05-29T13:55:14;10.00;;;6.85;;
4206;SDS011;2117;47.972;7.830;2023-05-29T13:57:39;7.78;;;6.45;;
4206;SDS011;2117;47.972;7.830;2023-05-29T14:00:05;8.30;;;5.93;;
4206;SDS011;2117;47.972;7.830;2023-05-29T14:02:31;7.28;;;5.93;;
4206;SDS011;2117;47.972;7.830;2023-05-29T14:04:57;7.53;;;5.95;;
4206;SDS011;2117;47.972;7.830;2023-05-29T14:07:22;16.27;;;6.50;;
4206;SDS011;2117;47.972;7.830;2023-05-29T14:09:49;10.90;;;6.78;;
4206;SDS011;2117;47.972;7.830;2023-05-29T14:12:15;13.35;;;6.45;;
4206;SDS011;2117;47.972;7.830;2023-05-29T14:14:40;7.35;;;6.45;;
4206;SDS011;2117;47.972;7.830;2023-05-29T14:17:06;8.93;;;6.72;;
4206;SDS011;2117;47.972;7.830;2023-05-29T14:19:31;11.13;;;5.70;;
4206;SDS011;2117;47.972;7.830;2023-05-29T14:21:57;8.05;;;6.63;;
4206;SDS011;2117;47.972;7.830;2023-05-29T14:24:24;8.45;;;6.53;;
4206;SDS011;2117;47.972;7.830;2023-05-29T14:26:50;10.20;;;6.60;;
4206;SDS011;2117;47.972;7.830;2023-05-29T14:29:16;12.88;;;7.28;;
4206;SDS011;2117;47.972;7.830;2023-05-29T14:31:42;9.23;;;7.30;;
4206;SDS011;2117;47.972;7.830;2023-05-29T14:34:08;8.25;;;6.68;;
4206;SDS011;2117;47.972;7.830;2023-05-29T14:36:34;9.55;;;7.43;;
4206;SDS011;2117;47.972;7.830;2023-05-29T14:39:01;9.75;;;7.28;;
4206;SDS011;2117;47.972;7.830;2023-05-29T14:41:27;9.10;;;7.55;;
4206;SDS011;2117;47.972;7.830;2023-05-29T14:43:52;13.60;;;7.68;;
4206;SDS011;2117;47.972;7.830;2023-05-29T14:46:18;8.00;;;6.53;;
4206;SDS011;2117;47.972;7.830;2023-05-29T14:48:44;9.45;;;7.40;;
4206;SDS011;2117;47.972;7.830;2023-05-29T14:51:12;10.93;;;6.95;;
4206;SDS011;2117;47.972;7.830;2023-05-29T14:53:37;11.43;;;6.13;;
4206;SDS011;2117;47.972;7.830;2023-05-29T14:56:03;7.78;;;6.30;;
4206;SDS011;2117;47.972;7.830;2023-05-29T14:58:29;9.48;;;6.78;;
4206;SDS011;2117;47.972;7.830;2023-05-29T15:00:55;8.32;;;6.95;;
4206;SDS011;2117;47.972;7.830;2023-05-29T15:03:21;10.07;;;6.20;;
4206;SDS011;2117;47.972;7.830;2023-05-29T15:05:49;9.30;;;6.22;;
4206;SDS011;2117;47.972;7.830;2023-05-29T15:08:15;11.55;;;5.65;;
4206;SDS011;2117;47.972;7.830;2023-05-29T15:10:41;7.35;;;6.53;;
4206;SDS011;2117;47.972;7.830;2023-05-29T15:13:06;7.57;;;6.22;;
4206;SDS011;2117;47.972;7.830;2023-05-29T15:15:32;8.45;;;6.45;;
4206;SDS011;2117;47.972;7.830;2023-05-29T15:17:57;9.63;;;6.72;;
4206;SDS011;2117;47.972;7.830;2023-05-29T15:20:25;8.77;;;6.38;;
4206;SDS011;2117;47.972;7.830;2023-05-29T15:22:52;8.50;;;6.65;;
4206;SDS011;2117;47.972;7.830;2023-05-29T15:25:18;11.65;;;6.38;;
4206;SDS011;2117;47.972;7.830;2023-05-29T15:27:44;13.27;;;6.35;;
4206;SDS011;2117;47.972;7.830;2023-05-29T15:32:45;7.75;;;5.80;;
4206;SDS011;2117;47.972;7.830;2023-05-29T15:35:12;7.78;;;6.35;;
4206;SDS011;2117;47.972;7.830;2023-05-29T15:37:39;9.18;;;5.68;;
4206;SDS011;2117;47.972;7.830;2023-05-29T15:40:06;8.32;;;6.00;;
4206;SDS011;2117;47.972;7.830;2023-05-29T15:42:32;7.15;;;5.53;;
4206;SDS011;2117;47.972;7.830;2023-05-29T15:44:58;14.77;;;6.63;;
4206;SDS011;2117;47.972;7.830;2023-05-29T15:47:24;9.05;;;6.20;;
4206;SDS011;2117;47.972;7.830;2023-05-29T15:49:50;9.45;;;6.40;;
4206;SDS011;2117;47.972;7.830;2023-05-29T15:52:16;7.05;;;5.65;;
4206;SDS011;2117;47.972;7.830;2023-05-29T15:54:42;9.63;;;6.07;;
4206;SDS011;2117;47.972;7.830;2023-05-29T15:57:07;8.98;;;6.32;;
4206;SDS011;2117;47.972;7.830;2023-05-29T15:59:33;11.13;;;6.03;;
4206;SDS011;2117;47.972;7.830;2023-05-29T16:01:59;14.75;;;6.53;;
4206;SDS011;2117;47.972;7.830;2023-05-29T16:04:25;10.18;;;6.35;;
4206;SDS011;2117;47.972;7.830;2023-05-29T16:06:51;8.18;;;6.28;;
4206;SDS011;2117;47.972;7.830;2023-05-29T16:09:17;8.98;;;5.65;;
4206;SDS011;2117;47.972;7.830;2023-05-29T16:11:43;9.32;;;6.82;;
4206;SDS011;2117;47.972;7.830;2023-05-29T16:14:09;7.53;;;5.70;;
4206;SDS011;2117;47.972;7.830;2023-05-29T16:16:34;7.25;;;5.90;;
4206;SDS011;2117;47.972;7.830;2023-05-29T16:19:01;7.10;;;5.80;;
4206;SDS011;2117;47.972;7.830;2023-05-29T16:21:27;7.07;;;5.50;;
4206;SDS011;2117;47.972;7.830;2023-05-29T16:23:52;14.30;;;6.60;;
4206;SDS011;2117;47.972;7.830;2023-05-29T16:26:22;9.20;;;6.60;;
4206;SDS011;2117;47.972;7.830;2023-05-29T16:28:52;9.13;;;6.20;;
4206;SDS011;2117;47.972;7.830;2023-05-29T16:31:18;9.63;;;6.13;;
4206;SDS011;2117;47.972;7.830;2023-05-29T16:33:43;10.80;;;5.60;;
4206;SDS011;2117;47.972;7.830;2023-05-29T16:36:09;11.70;;;6.50;;
4206;SDS011;2117;47.972;7.830;2023-05-29T16:38:35;9.50;;;6.20;;
4206;SDS011;2117;47.972;7.830;2023-05-29T16:41:01;9.67;;;6.43;;
4206;SDS011;2117;47.972;7.830;2023-05-29T16:43:27;14.17;;;5.80;;
4206;SDS011;2117;47.972;7.830;2023-05-29T16:45:52;8.23;;;5.47;;
4206;SDS011;2117;47.972;7.830;2023-05-29T16:48:18;7.83;;;5.57;;
4206;SDS011;2117;47.972;7.830;2023-05-29T16:50:43;8.20;;;5.40;;
4206;SDS011;2117;47.972;7.830;2023-05-29T16:53:09;13.60;;;7.87;;
4206;SDS011;2117;47.972;7.830;2023-05-29T16:55:34;8.93;;;6.23;;
4206;SDS011;2117;47.972;7.830;2023-05-29T16:58:00;7.43;;;5.57;;
4206;SDS011;2117;47.972;7.830;2023-05-29T17:00:26;11.27;;;5.50;;
4206;SDS011;2117;47.972;7.830;2023-05-29T17:02:51;8.33;;;6.10;;
4206;SDS011;2117;47.972;7.830;2023-05-29T17:05:17;12.00;;;5.17;;
4206;SDS011;2117;47.972;7.830;2023-05-29T17:07:42;7.60;;;5.70;;
4206;SDS011;2117;47.972;7.830;2023-05-29T17:10:08;8.13;;;5.83;;
4206;SDS011;2117;47.972;7.830;2023-05-29T17:12:34;7.90;;;5.50;;
4206;SDS011;2117;47.972;7.830;2023-05-29T17:15:00;11.93;;;5.77;;
4206;SDS011;2117;47.972;7.830;2023-05-29T17:17:26;7.97;;;5.10;;
4206;SDS011;2117;47.972;7.830;2023-05-29T17:19:51;7.30;;;5.00;;
4206;SDS011;2117;47.972;7.830;2023-05-29T17:22:17;6.53;;;5.10;;
4206;SDS011;2117;47.972;7.830;2023-05-29T17:24:43;8.93;;;5.67;;
4206;SDS011;2117;47.972;7.830;2023-05-29T17:27:09;7.63;;;5.43;;
4206;SDS011;2117;47.972;7.830;2023-05-29T17:29:34;12.00;;;5.70;;
4206;SDS011;2117;47.972;7.830;2023-05-29T17:32:00;8.40;;;5.67;;
4206;SDS011;2117;47.972;7.830;2023-05-29T17:34:26;10.40;;;5.70;;
4206;SDS011;2117;47.972;7.830;2023-05-29T17:36:52;6.80;;;4.67;;
4206;SDS011;2117;47.972;7.830;2023-05-29T17:39:17;8.23;;;5.60;;
4206;SDS011;2117;47.972;7.830;2023-05-29T17:41:43;10.00;;;5.67;;
4206;SDS011;2117;47.972;7.830;2023-05-29T17:44:08;7.67;;;4.83;;
4206;SDS011;2117;47.972;7.830;2023-05-29T17:46:34;7.67;;;5.10;;
4206;SDS011;2117;47.972;7.830;2023-05-29T17:48:59;8.73;;;5.30;;
4206;SDS011;2117;47.972;7.830;2023-05-29T17:51:25;9.23;;;5.60;;
4206;SDS011;2117;47.972;7.830;2023-05-29T17:53:50;8.80;;;5.77;;
4206;SDS011;2117;47.972;7.830;2023-05-29T17:56:16;7.83;;;5.63;;
4206;SDS011;2117;47.972;7.830;2023-05-29T17:58:42;8.43;;;5.93;;
4206;SDS011;2117;47.972;7.830;2023-05-29T18:01:08;5.67;;;4.50;;
4206;SDS011;2117;47.972;7.830;2023-05-29T18:03:33;6.43;;;4.67;;
4206;SDS011;2117;47.972;7.830;2023-05-29T18:05:59;6.70;;;4.40;;
4206;SDS011;2117;47.972;7.830;2023-05-29T18:08:25;6.67;;;4.80;;
4206;SDS011;2117;47.972;7.830;2023-05-29T18:10:51;6.90;;;4.67;;
4206;SDS011;2117;47.972;7.830;2023-05-29T18:13:16;7.07;;;4.33;;
4206;SDS011;2117;47.972;7.830;2023-05-29T18:15:42;7.37;;;4.57;;
4206;SDS011;2117;47.972;7.830;2023-05-29T18:18:07;7.13;;;5.50;;
4206;SDS011;2117;47.972;7.830;2023-05-29T18:20:33;8.10;;;5.17;;
4206;SDS011;2117;47.972;7.830;2023-05-29T18:22:58;8.40;;;5.40;;
4206;SDS011;2117;47.972;7.830;2023-05-29T18:25:24;14.30;;;6.30;;
4206;SDS011;2117;47.972;7.830;2023-05-29T18:27:50;6.93;;;5.60;;